createdAt,value
2022-12-11T00:02:07.410Z,33.50
2022-12-11T00:04:37.249Z,32.17
2022-12-11T00:07:05.837Z,31.42
2022-12-11T00:09:36.016Z,32.23
2022-12-11T00:12:05.319Z,31.63
2022-12-11T00:14:33.901Z,30.67
2022-12-11T00:17:02.395Z,29.88
2022-12-11T00:19:30.956Z,29.07
2022-12-11T00:22:00.736Z,28.70
2022-12-11T00:24:30.126Z,29.23
2022-12-11T00:26:58.664Z,30.00
2022-12-11T00:29:27.026Z,30.40
2022-12-11T00:31:55.721Z,30.23
2022-12-11T00:34:26.999Z,29.57
2022-12-11T00:36:55.392Z,29.73
2022-12-11T00:39:25.159Z,30.70
2022-12-11T00:41:53.705Z,29.27
2022-12-11T00:44:22.587Z,31.23
2022-12-11T00:46:51.103Z,30.97
2022-12-11T00:49:19.685Z,32.67
2022-12-11T00:51:48.283Z,32.37
2022-12-11T00:54:16.850Z,30.13
2022-12-11T00:56:46.685Z,31.93
2022-12-11T00:59:15.210Z,30.30
2022-12-11T01:01:43.763Z,31.13
2022-12-11T01:04:12.255Z,30.87
2022-12-11T01:06:41.124Z,32.27
2022-12-11T01:09:26.965Z,30.03
2022-12-11T01:11:56.763Z,30.67
2022-12-11T01:14:25.236Z,28.95
2022-12-11T01:16:53.849Z,30.93
2022-12-11T01:19:22.298Z,31.50
2022-12-11T01:21:50.907Z,31.27
2022-12-11T01:24:19.591Z,33.37
2022-12-11T01:26:48.372Z,31.33
2022-12-11T01:29:20.648Z,31.30
2022-12-11T01:31:49.416Z,32.90
2022-12-11T01:34:17.917Z,33.07
2022-12-11T01:36:49.586Z,33.23
2022-12-11T01:39:18.100Z,36.27
2022-12-11T01:41:47.050Z,36.07
2022-12-11T01:45:07.557Z,37.30
2022-12-11T01:47:37.762Z,36.20
2022-12-11T01:50:07.168Z,38.40
2022-12-11T01:52:35.940Z,37.20
2022-12-11T01:55:04.537Z,36.97
2022-12-11T01:57:33.667Z,37.70
2022-12-11T02:00:02.130Z,37.60
2022-12-11T02:02:43.036Z,36.73
2022-12-11T02:05:11.928Z,37.03
2022-12-11T02:07:45.756Z,38.65
2022-12-11T02:10:14.906Z,37.30
2022-12-11T02:12:56.670Z,39.53
2022-12-11T02:15:33.236Z,38.27
2022-12-11T02:18:28.254Z,40.08
2022-12-11T02:21:04.946Z,38.57
2022-12-11T02:23:57.905Z,36.95
2022-12-11T02:26:49.404Z,36.40
2022-12-11T02:29:24.266Z,37.00
2022-12-11T02:31:59.042Z,37.43
2022-12-11T02:34:33.961Z,37.22
2022-12-11T02:37:07.393Z,37.27
2022-12-11T02:39:40.587Z,33.87
2022-12-11T02:42:11.277Z,34.10
2022-12-11T02:44:42.532Z,35.70
2022-12-11T02:47:15.423Z,34.50
2022-12-11T02:49:48.727Z,35.57
2022-12-11T02:52:21.621Z,35.10
2022-12-11T02:54:53.329Z,35.43
2022-12-11T02:57:31.030Z,34.22
2022-12-11T03:00:00.876Z,36.00
2022-12-11T03:02:29.383Z,35.70
2022-12-11T03:04:57.875Z,35.77
2022-12-11T03:07:31.050Z,33.50
2022-12-11T03:09:59.625Z,33.73
2022-12-11T03:12:31.615Z,33.23
2022-12-11T03:15:03.669Z,32.73
2022-12-11T03:17:37.071Z,32.57
2022-12-11T03:20:14.188Z,32.83
2022-12-11T03:22:50.108Z,34.63
2022-12-11T03:25:23.806Z,32.60
2022-12-11T03:27:58.633Z,33.13
2022-12-11T03:30:30.434Z,35.50
2022-12-11T03:33:04.748Z,34.47
2022-12-11T03:35:37.131Z,32.43
2022-12-11T03:38:11.522Z,32.27
2022-12-11T03:40:44.395Z,33.03
2022-12-11T03:43:13.254Z,32.80
2022-12-11T03:45:44.822Z,31.55
2022-12-11T03:48:14.903Z,30.23
2022-12-11T03:50:44.671Z,28.77
2022-12-11T03:53:13.864Z,29.67
2022-12-11T03:55:43.622Z,28.77
2022-12-11T03:58:12.208Z,29.42
2022-12-11T04:00:42.226Z,27.20
2022-12-11T04:03:17.907Z,26.30
2022-12-11T04:05:48.595Z,27.35
2022-12-11T04:10:46.245Z,25.17
2022-12-11T04:13:14.957Z,25.90
2022-12-11T04:15:43.768Z,24.52
2022-12-11T04:18:29.848Z,24.87
2022-12-11T04:21:15.997Z,25.23
2022-12-11T04:24:01.800Z,25.02
2022-12-11T04:26:30.184Z,25.07
2022-12-11T04:28:58.581Z,23.65
2022-12-11T04:31:29.957Z,24.17
2022-12-11T04:33:58.426Z,24.27
2022-12-11T04:36:26.798Z,24.77
2022-12-11T04:38:55.141Z,24.33
2022-12-11T04:41:23.557Z,25.67
2022-12-11T04:43:52.017Z,25.75
2022-12-11T04:46:23.409Z,26.53
2022-12-11T04:48:57.667Z,25.63
2022-12-11T04:51:26.447Z,24.00
2022-12-11T04:53:56.349Z,24.70
2022-12-11T04:56:24.792Z,23.98
2022-12-11T04:58:53.525Z,24.97
2022-12-11T05:01:24.012Z,24.20
2022-12-11T05:06:22.062Z,23.00
2022-12-11T05:08:50.409Z,23.40
2022-12-11T05:11:18.763Z,23.07
2022-12-11T05:13:47.882Z,23.30
2022-12-11T05:16:18.054Z,22.40
2022-12-11T05:18:49.386Z,22.43
2022-12-11T05:21:19.459Z,23.23
2022-12-11T05:23:47.940Z,24.58
2022-12-11T05:26:18.891Z,23.70
2022-12-11T05:28:48.155Z,22.87
2022-12-11T05:31:20.579Z,23.93
2022-12-11T05:33:51.237Z,23.97
2022-12-11T05:38:54.857Z,23.73
2022-12-11T05:41:25.483Z,24.85
2022-12-11T05:46:24.468Z,23.00
2022-12-11T05:48:55.727Z,24.00
2022-12-11T05:51:25.813Z,25.93
2022-12-11T05:53:55.482Z,25.05
2022-12-11T05:56:26.322Z,24.52
2022-12-11T05:58:56.128Z,24.63
2022-12-11T06:01:28.797Z,25.20
2022-12-11T06:03:58.438Z,25.50
2022-12-11T06:06:29.523Z,25.20
2022-12-11T06:08:59.934Z,24.60
2022-12-11T06:11:31.269Z,25.70
2022-12-11T06:14:00.524Z,25.77
2022-12-11T06:16:28.980Z,27.00
2022-12-11T06:18:58.567Z,26.87
2022-12-11T06:21:31.536Z,26.63
2022-12-11T06:24:02.776Z,27.90
2022-12-11T06:26:32.052Z,28.07
2022-12-11T06:29:00.701Z,26.07
2022-12-11T06:31:29.335Z,27.53
2022-12-11T06:33:57.717Z,27.63
2022-12-11T06:36:28.067Z,28.30
2022-12-11T06:38:56.669Z,27.08
2022-12-11T06:41:25.152Z,28.47
2022-12-11T06:43:53.465Z,26.63
2022-12-11T06:46:22.454Z,28.27
2022-12-11T06:48:51.115Z,26.87
2022-12-11T06:51:21.898Z,25.53
2022-12-11T06:53:55.796Z,26.73
2022-12-11T06:56:25.513Z,25.70
2022-12-11T06:58:54.033Z,26.92
2022-12-11T07:01:24.864Z,26.27
2022-12-11T07:03:54.984Z,26.00
2022-12-11T07:06:24.354Z,24.70
2022-12-11T07:08:54.542Z,25.20
2022-12-11T07:11:23.251Z,24.63
2022-12-11T07:13:54.761Z,24.27
2022-12-11T07:16:23.211Z,25.30
2022-12-11T07:18:52.637Z,26.57
2022-12-11T07:21:22.159Z,25.30
2022-12-11T07:23:51.447Z,25.70
2022-12-11T07:26:23.038Z,25.67
2022-12-11T07:28:51.826Z,24.30
2022-12-11T07:31:24.047Z,23.43
2022-12-11T07:33:55.994Z,24.13
2022-12-11T07:36:25.271Z,23.07
2022-12-11T07:38:53.987Z,22.10
2022-12-11T07:41:24.859Z,19.70
2022-12-11T07:43:56.376Z,19.70
2022-12-11T07:46:29.575Z,19.63
2022-12-11T07:48:57.950Z,18.13
2022-12-11T07:51:28.762Z,19.63
2022-12-11T07:53:59.692Z,18.93
2022-12-11T07:56:31.926Z,20.13
2022-12-11T07:59:01.418Z,18.53
2022-12-11T08:01:32.605Z,20.13
2022-12-11T08:04:00.951Z,21.00
2022-12-11T08:06:31.870Z,21.27
2022-12-11T08:09:02.001Z,21.10
2022-12-11T08:11:32.109Z,20.13
2022-12-11T08:14:01.069Z,20.05
2022-12-11T08:16:29.731Z,20.23
2022-12-11T08:18:58.973Z,20.90
2022-12-11T08:21:29.314Z,19.40
2022-12-11T08:23:58.341Z,18.38
2022-12-11T08:26:29.188Z,20.53
2022-12-11T08:28:59.624Z,19.47
2022-12-11T08:31:28.427Z,22.67
2022-12-11T08:33:58.364Z,22.60
2022-12-11T08:36:27.157Z,23.50
2022-12-11T08:38:56.889Z,23.17
2022-12-11T08:41:28.424Z,21.90
2022-12-11T08:44:00.453Z,22.70
2022-12-11T08:46:31.539Z,24.07
2022-12-11T08:49:00.694Z,25.53
2022-12-11T08:51:30.798Z,26.10
2022-12-11T08:54:01.852Z,27.13
2022-12-11T08:56:30.797Z,28.73
2022-12-11T08:59:04.195Z,28.40
2022-12-11T09:01:32.757Z,28.50
2022-12-11T09:04:01.128Z,29.13
2022-12-11T09:06:33.889Z,30.67
2022-12-11T09:09:03.279Z,32.53
2022-12-11T09:11:35.650Z,29.87
2022-12-11T09:14:08.120Z,29.00
2022-12-11T09:16:41.651Z,30.67
2022-12-11T09:19:14.375Z,31.10
2022-12-11T09:21:44.198Z,30.30
2022-12-11T09:24:14.006Z,28.98
2022-12-11T09:26:43.409Z,30.60
2022-12-11T09:29:14.497Z,31.53
2022-12-11T09:31:43.308Z,31.27
2022-12-11T09:34:14.749Z,31.23
2022-12-11T09:36:44.799Z,31.17
2022-12-11T09:39:15.021Z,30.52
2022-12-11T09:41:54.413Z,31.48
2022-12-11T09:44:35.403Z,31.33
2022-12-11T09:47:03.928Z,31.60
2022-12-11T09:49:39.824Z,31.10
2022-12-11T09:52:16.035Z,31.87
2022-12-11T09:54:50.727Z,29.67
2022-12-11T09:57:46.879Z,30.00
2022-12-11T10:00:28.068Z,31.57
2022-12-11T10:03:29.244Z,31.48
2022-12-11T10:06:07.543Z,31.63
2022-12-11T10:08:43.678Z,31.43
2022-12-11T10:11:44.714Z,32.90
2022-12-11T10:14:21.099Z,31.90
2022-12-11T10:16:55.903Z,31.58
2022-12-11T10:19:29.925Z,30.00
2022-12-11T10:21:59.945Z,31.15
2022-12-11T10:25:09.288Z,31.63
2022-12-11T10:27:31.329Z,31.08
2022-12-11T10:30:09.095Z,31.10
2022-12-11T10:32:51.802Z,34.57
2022-12-11T10:35:31.347Z,32.33
2022-12-11T10:38:13.474Z,33.80
2022-12-11T10:40:48.490Z,36.90
2022-12-11T10:43:17.021Z,35.57
2022-12-11T10:45:53.529Z,37.60
2022-12-11T10:48:23.782Z,37.50
2022-12-11T10:51:01.924Z,35.10
2022-12-11T10:53:31.748Z,36.83
2022-12-11T10:56:01.136Z,36.35
2022-12-11T10:58:34.023Z,36.57
2022-12-11T11:01:09.088Z,34.65
2022-12-11T11:03:55.605Z,35.83
2022-12-11T11:06:25.894Z,37.63
2022-12-11T11:08:56.651Z,35.13
2022-12-11T11:11:33.983Z,36.58
2022-12-11T11:14:20.578Z,35.87
2022-12-11T11:16:52.394Z,37.97
2022-12-11T11:19:26.600Z,35.22
2022-12-11T11:21:57.959Z,35.77
2022-12-11T11:24:31.732Z,34.45
2022-12-11T11:27:15.495Z,35.67
2022-12-11T11:29:46.681Z,34.88
2022-12-11T11:32:24.318Z,35.27
2022-12-11T11:34:54.168Z,35.33
2022-12-11T11:37:34.939Z,33.90
2022-12-11T11:40:12.356Z,33.80
2022-12-11T11:42:48.339Z,34.42
2022-12-11T11:45:23.049Z,31.73
2022-12-11T11:48:03.134Z,32.17
2022-12-11T11:50:37.913Z,33.07
2022-12-11T11:53:13.321Z,32.72
2022-12-11T11:55:50.886Z,31.70
2022-12-11T11:58:24.219Z,32.97
2022-12-11T12:00:55.174Z,33.03
2022-12-11T12:03:26.209Z,31.55
2022-12-11T12:06:04.165Z,33.42
2022-12-11T12:08:46.221Z,29.80
2022-12-11T12:11:26.053Z,33.35
2022-12-11T12:14:22.543Z,32.05
2022-12-11T12:17:07.759Z,30.83
2022-12-11T12:19:55.714Z,31.73
2022-12-11T12:22:52.057Z,31.05
2022-12-11T12:25:28.173Z,34.22
2022-12-11T12:28:07.186Z,30.13
2022-12-11T12:30:47.240Z,31.25
2022-12-11T12:33:30.033Z,31.67
2022-12-11T12:36:08.943Z,31.52
2022-12-11T12:38:52.483Z,33.80
2022-12-11T12:41:28.113Z,31.65
2022-12-11T12:44:10.842Z,33.13
2022-12-11T12:46:51.913Z,33.08
2022-12-11T12:49:35.880Z,33.75
2022-12-11T12:52:06.716Z,34.25
2022-12-11T12:54:37.723Z,34.37
2022-12-11T12:57:06.478Z,34.67
2022-12-11T12:59:34.811Z,33.80
2022-12-11T13:02:06.698Z,34.83
2022-12-11T13:04:59.192Z,32.83
2022-12-11T13:07:31.214Z,33.40
2022-12-11T13:10:09.604Z,32.72
2022-12-11T13:12:46.684Z,30.95
2022-12-11T13:15:40.804Z,32.45
2022-12-11T13:18:36.383Z,32.65
2022-12-11T13:21:27.127Z,32.25
2022-12-11T13:23:55.994Z,31.87
2022-12-11T13:26:34.686Z,32.47
2022-12-11T13:29:03.092Z,33.47
2022-12-11T13:31:38.075Z,32.35
2022-12-11T13:34:18.496Z,29.45
2022-12-11T13:36:51.805Z,30.05
2022-12-11T13:39:24.528Z,30.23
2022-12-11T13:41:59.357Z,30.67
2022-12-11T13:44:32.881Z,31.47
2022-12-11T13:47:04.415Z,30.38
2022-12-11T13:49:38.529Z,25.05
2022-12-11T13:52:08.335Z,29.90
2022-12-11T13:54:37.589Z,28.00
2022-12-11T13:57:18.585Z,28.77
2022-12-11T13:59:51.016Z,28.77
2022-12-11T14:02:24.530Z,27.58
2022-12-11T14:04:57.808Z,26.75
2022-12-11T14:07:30.282Z,29.37
2022-12-11T14:10:04.366Z,28.13
2022-12-11T14:12:34.389Z,27.75
2022-12-11T14:15:05.733Z,28.25
2022-12-11T14:17:36.600Z,26.58
2022-12-11T14:20:08.445Z,27.52
2022-12-11T14:22:37.041Z,27.55
2022-12-11T14:25:23.391Z,26.95
2022-12-11T14:27:56.585Z,27.17
2022-12-11T14:30:28.862Z,27.08
2022-12-11T14:33:00.543Z,27.00
2022-12-11T14:35:38.399Z,25.98
2022-12-11T14:38:16.257Z,27.05
2022-12-11T14:40:51.518Z,26.40
2022-12-11T14:43:26.805Z,26.70
2022-12-11T14:46:00.518Z,25.63
2022-12-11T14:48:33.500Z,28.23
2022-12-11T14:51:06.836Z,28.43
2022-12-11T14:53:39.214Z,27.63
2022-12-11T14:56:15.403Z,29.30
2022-12-11T14:58:55.304Z,29.70
2022-12-11T15:01:27.787Z,27.48
2022-12-11T15:04:08.682Z,27.02
2022-12-11T15:06:45.904Z,26.67
2022-12-11T15:09:21.388Z,27.70
2022-12-11T15:11:51.607Z,26.03
2022-12-11T15:14:24.149Z,25.77
2022-12-11T15:16:55.450Z,25.10
2022-12-11T15:19:29.681Z,24.93
2022-12-11T15:22:05.029Z,24.38
2022-12-11T15:24:39.308Z,24.03
2022-12-11T15:27:08.406Z,24.63
2022-12-11T15:29:43.449Z,23.00
2022-12-11T15:32:20.263Z,22.88
2022-12-11T15:34:51.223Z,22.70
2022-12-11T15:37:25.491Z,22.50
2022-12-11T15:39:57.475Z,23.30
2022-12-11T15:42:32.583Z,22.83
2022-12-11T15:45:02.991Z,21.33
2022-12-11T15:47:32.901Z,22.60
2022-12-11T15:50:08.661Z,23.85
2022-12-11T15:52:37.060Z,23.17
2022-12-11T15:55:06.374Z,21.70
2022-12-11T15:57:35.451Z,21.10
2022-12-11T16:00:07.469Z,21.92
2022-12-11T16:02:36.007Z,22.70
2022-12-11T16:05:04.859Z,24.17
2022-12-11T16:07:33.349Z,24.17
2022-12-11T16:10:02.198Z,23.30
2022-12-11T16:12:30.634Z,22.10
2022-12-11T16:14:59.032Z,22.55
2022-12-11T16:17:29.057Z,24.10
2022-12-11T16:19:57.599Z,23.10
2022-12-11T16:22:25.957Z,22.47
2022-12-11T16:24:55.829Z,22.67
2022-12-11T16:27:24.910Z,22.48
2022-12-11T16:29:53.481Z,22.77
2022-12-11T16:32:21.995Z,21.77
2022-12-11T16:34:51.702Z,19.83
2022-12-11T16:37:20.204Z,17.07
2022-12-11T16:39:48.730Z,15.50
2022-12-11T16:42:17.027Z,17.40
2022-12-11T16:44:45.459Z,16.45
2022-12-11T16:47:13.922Z,16.90
2022-12-11T16:49:43.172Z,15.77
2022-12-11T16:52:15.352Z,16.67
2022-12-11T16:54:47.649Z,16.07
2022-12-11T16:57:15.979Z,16.17
2022-12-11T16:59:44.330Z,17.27
2022-12-11T17:02:13.276Z,16.80
2022-12-11T17:04:41.986Z,17.03
2022-12-11T17:07:10.434Z,19.70
2022-12-11T17:09:40.382Z,19.27
2022-12-11T17:12:10.071Z,20.48
2022-12-11T17:14:38.522Z,26.05
2022-12-11T17:17:07.115Z,28.40
2022-12-11T17:19:35.493Z,28.80
2022-12-11T17:22:04.632Z,29.83
2022-12-11T17:24:33.937Z,28.83
2022-12-11T17:27:03.663Z,29.80
2022-12-11T17:29:32.596Z,31.75
2022-12-11T17:32:03.176Z,30.73
2022-12-11T17:34:37.871Z,32.80
2022-12-11T17:37:07.228Z,32.37
2022-12-11T17:39:35.592Z,32.93
2022-12-11T17:42:05.665Z,32.50
2022-12-11T17:44:34.535Z,31.67
2022-12-11T17:47:07.681Z,28.83
2022-12-11T17:49:39.481Z,29.53
2022-12-11T17:52:08.127Z,25.87
2022-12-11T17:54:36.512Z,24.53
2022-12-11T17:57:06.823Z,24.57
2022-12-11T17:59:35.335Z,23.95
2022-12-11T18:02:03.721Z,25.30
2022-12-11T18:04:32.255Z,24.30
2022-12-11T18:07:00.669Z,23.17
2022-12-11T18:09:29.130Z,24.20
2022-12-11T18:11:57.776Z,28.13
2022-12-11T18:14:27.603Z,30.43
2022-12-11T18:16:55.969Z,34.63
2022-12-11T18:19:27.192Z,35.73
2022-12-11T18:21:56.664Z,36.70
2022-12-11T18:24:25.895Z,36.30
2022-12-11T18:26:54.513Z,36.87
2022-12-11T18:29:22.890Z,36.23
2022-12-11T18:31:52.856Z,38.20
2022-12-11T18:34:21.458Z,37.20
2022-12-11T18:36:49.796Z,37.03
2022-12-11T18:39:20.649Z,37.53
2022-12-11T18:42:03.434Z,34.63
2022-12-11T18:44:37.844Z,33.80
2022-12-11T18:47:07.899Z,35.80
2022-12-11T18:49:36.486Z,35.17
2022-12-11T18:52:05.585Z,35.73
2022-12-11T18:54:34.087Z,35.67
2022-12-11T18:57:02.404Z,37.30
2022-12-11T18:59:30.827Z,35.30
2022-12-11T19:01:59.286Z,37.97
2022-12-11T19:04:29.192Z,35.73
2022-12-11T19:06:57.914Z,36.40
2022-12-11T19:09:26.558Z,35.43
2022-12-11T19:11:55.846Z,36.57
2022-12-11T19:14:24.598Z,36.03
2022-12-11T19:16:53.538Z,37.40
2022-12-11T19:19:23.242Z,36.00
2022-12-11T19:21:53.092Z,35.80
2022-12-11T19:24:23.827Z,35.35
2022-12-11T19:26:53.085Z,35.80
2022-12-11T19:29:27.782Z,36.00
2022-12-11T19:31:56.773Z,34.70
2022-12-11T19:34:26.045Z,34.63
2022-12-11T19:36:57.302Z,34.60
2022-12-11T19:39:25.671Z,35.53
2022-12-11T19:41:53.968Z,36.53
2022-12-11T19:44:23.013Z,35.07
2022-12-11T19:46:51.554Z,35.50
2022-12-11T19:49:20.063Z,35.23
2022-12-11T19:51:48.685Z,35.03
2022-12-11T19:54:19.817Z,35.23
2022-12-11T19:56:48.487Z,36.87
2022-12-11T19:59:18.104Z,37.10
2022-12-11T20:01:49.397Z,37.23
2022-12-11T20:04:19.967Z,36.67
2022-12-11T20:09:22.295Z,34.93
2022-12-11T20:11:50.777Z,36.13
2022-12-11T20:14:23.453Z,36.50
2022-12-11T20:17:12.805Z,36.43
2022-12-11T20:19:43.071Z,36.17
2022-12-11T20:22:11.736Z,37.97
2022-12-11T20:24:41.875Z,37.20
2022-12-11T20:27:12.379Z,37.22
2022-12-11T20:29:40.930Z,37.83
2022-12-11T20:32:12.275Z,36.23
2022-12-11T20:34:41.255Z,37.70
2022-12-11T20:37:09.735Z,36.77
2022-12-11T20:39:40.102Z,37.30
2022-12-11T20:42:11.118Z,36.80
2022-12-11T20:44:42.798Z,37.00
2022-12-11T20:47:15.700Z,36.73
2022-12-11T20:49:44.065Z,37.13
2022-12-11T20:52:12.621Z,38.97
2022-12-11T20:54:42.465Z,37.60
2022-12-11T20:57:11.333Z,38.75
2022-12-11T20:59:40.136Z,37.83
2022-12-11T21:02:09.505Z,37.93
2022-12-11T21:04:41.060Z,37.37
2022-12-11T21:07:10.564Z,36.87
2022-12-11T21:09:41.017Z,37.53
2022-12-11T21:14:39.206Z,37.23
2022-12-11T21:17:07.626Z,36.43
2022-12-11T21:19:36.006Z,36.83
2022-12-11T21:22:04.682Z,37.00
2022-12-11T21:24:33.109Z,38.13
2022-12-11T21:27:02.820Z,37.23
2022-12-11T21:29:31.307Z,37.50
2022-12-11T21:32:02.781Z,38.17
2022-12-11T21:34:31.246Z,39.33
2022-12-11T21:36:59.900Z,39.43
2022-12-11T21:39:29.548Z,38.53
2022-12-11T21:42:00.511Z,38.33
2022-12-11T21:47:19.872Z,39.70
2022-12-11T21:49:48.516Z,40.50
2022-12-11T21:52:16.946Z,40.80
2022-12-11T21:54:45.376Z,40.00
2022-12-11T21:57:14.126Z,40.47
2022-12-11T21:59:43.921Z,41.07
2022-12-11T22:02:12.739Z,39.50
2022-12-11T22:04:42.031Z,40.83
2022-12-11T22:07:10.391Z,39.10
2022-12-11T22:09:38.799Z,41.63
2022-12-11T22:12:07.764Z,38.70
2022-12-11T22:14:36.875Z,39.87
2022-12-11T22:17:06.831Z,39.20
2022-12-11T22:19:35.159Z,39.45
2022-12-11T22:22:03.588Z,37.40
2022-12-11T22:24:32.221Z,39.97
2022-12-11T22:27:01.016Z,40.50
2022-12-11T22:29:29.752Z,38.83
2022-12-11T22:32:00.788Z,39.00
2022-12-11T22:34:30.557Z,39.27
2022-12-11T22:36:58.832Z,38.65
2022-12-11T22:39:27.233Z,37.73
2022-12-11T22:41:55.551Z,39.83
2022-12-11T22:44:24.217Z,37.23
2022-12-11T22:46:52.788Z,38.80
2022-12-11T22:49:23.138Z,37.10
2022-12-11T22:51:53.026Z,38.63
2022-12-11T22:54:24.733Z,37.33
2022-12-11T22:56:53.226Z,35.43
2022-12-11T22:59:21.523Z,37.07
2022-12-11T23:01:49.971Z,34.73
2022-12-11T23:04:18.476Z,34.87
2022-12-11T23:06:46.904Z,34.87
2022-12-11T23:09:16.758Z,33.90
2022-12-11T23:11:45.911Z,35.33
2022-12-11T23:14:19.295Z,35.47
2022-12-11T23:16:49.682Z,35.17
2022-12-11T23:19:25.243Z,33.88
2022-12-11T23:21:54.124Z,34.30
2022-12-11T23:24:24.911Z,34.07
2022-12-11T23:26:53.349Z,37.03
2022-12-11T23:29:21.775Z,35.37
2022-12-11T23:31:50.329Z,33.60
2022-12-11T23:34:18.686Z,33.87
2022-12-11T23:36:47.276Z,32.87
2022-12-11T23:39:15.712Z,33.20
2022-12-11T23:41:45.621Z,32.40
2022-12-11T23:44:14.048Z,34.65
2022-12-11T23:46:44.925Z,33.37
2022-12-11T23:49:13.390Z,33.13
2022-12-11T23:51:43.691Z,32.92
2022-12-11T23:54:12.057Z,33.90
2022-12-11T23:56:40.557Z,32.80
2022-12-11T23:59:13.317Z,32.67
